createdAt,value
2022-12-31T00:00:22.262Z,83.08
2022-12-31T00:05:24.517Z,82.63
2022-12-31T00:10:26.705Z,82.62
2022-12-31T00:15:29.122Z,83.34
2022-12-31T00:20:31.621Z,83.82
2022-12-31T00:25:36.470Z,84.50
2022-12-31T00:30:39.064Z,85.13
2022-12-31T00:35:41.232Z,84.49
2022-12-31T00:40:43.398Z,84.78
2022-12-31T00:45:45.552Z,84.73
2022-12-31T00:50:47.921Z,84.71
2022-12-31T00:55:50.571Z,84.30
2022-12-31T01:00:52.778Z,84.54
2022-12-31T01:05:59.493Z,84.19
2022-12-31T01:11:21.310Z,84.06
2022-12-31T01:16:26.790Z,84.10
2022-12-31T01:21:29.811Z,84.26
2022-12-31T01:26:32.479Z,84.04
2022-12-31T01:31:36.046Z,83.87
2022-12-31T01:36:38.738Z,83.37
2022-12-31T01:41:44.940Z,83.15
2022-12-31T01:46:55.873Z,82.74
2022-12-31T01:52:04.676Z,82.70
2022-12-31T01:57:08.244Z,82.39
2022-12-31T02:02:11.336Z,82.83
2022-12-31T02:07:13.634Z,82.71
2022-12-31T02:12:15.973Z,82.59
2022-12-31T02:17:58.560Z,82.75
2022-12-31T02:23:03.593Z,83.07
2022-12-31T02:28:14.771Z,82.46
2022-12-31T02:33:26.897Z,82.98
2022-12-31T02:38:33.272Z,83.30
2022-12-31T02:43:35.483Z,82.81
2022-12-31T02:48:41.229Z,82.34
2022-12-31T02:54:14.362Z,82.14
2022-12-31T02:59:45.316Z,81.99
2022-12-31T03:04:56.348Z,81.92
2022-12-31T03:09:59.945Z,82.05
2022-12-31T03:15:02.176Z,82.87
2022-12-31T03:20:23.791Z,82.99
2022-12-31T03:25:41.185Z,83.17
2022-12-31T03:30:46.472Z,82.93
2022-12-31T03:35:50.735Z,82.85
2022-12-31T03:40:54.674Z,82.30
2022-12-31T03:45:59.808Z,82.03
2022-12-31T03:51:02.115Z,82.02
2022-12-31T03:56:04.582Z,81.97
2022-12-31T04:01:07.347Z,81.79
2022-12-31T04:06:09.579Z,82.14
2022-12-31T04:11:17.345Z,82.31
2022-12-31T04:16:22.763Z,82.24
2022-12-31T04:21:26.847Z,82.05
2022-12-31T04:26:32.380Z,81.84
2022-12-31T04:31:34.636Z,81.74
2022-12-31T04:36:36.900Z,81.45
2022-12-31T04:41:39.085Z,81.03
2022-12-31T04:46:41.325Z,81.31
2022-12-31T04:51:43.484Z,81.40
2022-12-31T04:56:45.739Z,81.48
2022-12-31T05:01:48.088Z,80.73
2022-12-31T05:06:50.371Z,82.26
2022-12-31T05:11:52.563Z,83.68
2022-12-31T05:16:54.850Z,83.93
2022-12-31T05:22:15.744Z,82.26
2022-12-31T05:27:18.001Z,82.11
2022-12-31T05:32:20.182Z,83.12
2022-12-31T05:37:22.510Z,82.96
2022-12-31T05:42:25.156Z,82.65
2022-12-31T05:47:28.893Z,83.07
2022-12-31T05:52:31.058Z,82.83
2022-12-31T05:57:33.378Z,82.98
2022-12-31T06:02:36.056Z,83.21
2022-12-31T06:07:38.247Z,82.56
2022-12-31T06:12:40.579Z,82.30
2022-12-31T06:17:42.712Z,82.06
2022-12-31T06:22:45.087Z,81.75
2022-12-31T06:27:47.285Z,81.87
2022-12-31T06:32:49.481Z,82.44
2022-12-31T06:37:52.255Z,82.25
2022-12-31T06:42:59.650Z,82.04
2022-12-31T06:48:02.190Z,82.61
2022-12-31T06:53:04.516Z,82.73
2022-12-31T06:58:07.016Z,81.66
2022-12-31T07:03:18.940Z,81.57
2022-12-31T07:08:52.201Z,82.38
2022-12-31T07:14:32.178Z,82.35
2022-12-31T07:19:57.676Z,82.07
2022-12-31T07:25:00.582Z,81.98
2022-12-31T07:30:02.760Z,81.86
2022-12-31T07:35:34.784Z,83.04
2022-12-31T07:40:46.140Z,83.23
2022-12-31T07:45:58.402Z,82.83
2022-12-31T07:51:00.893Z,82.13
2022-12-31T07:56:08.655Z,82.06
2022-12-31T08:01:19.964Z,82.32
2022-12-31T08:06:53.219Z,82.03
2022-12-31T08:12:01.248Z,81.53
2022-12-31T08:17:03.731Z,80.54
2022-12-31T08:22:31.218Z,79.35
2022-12-31T08:28:05.895Z,77.44
2022-12-31T08:33:07.995Z,77.14
2022-12-31T08:38:25.222Z,77.52
2022-12-31T08:43:52.587Z,77.30
2022-12-31T08:48:55.042Z,77.87
2022-12-31T08:53:57.510Z,77.86
2022-12-31T08:59:04.648Z,77.83
2022-12-31T09:04:20.634Z,77.13
2022-12-31T09:09:45.596Z,75.28
2022-12-31T09:14:55.238Z,76.26
2022-12-31T09:19:58.082Z,75.50
2022-12-31T09:25:00.715Z,75.87
2022-12-31T09:30:11.051Z,75.42
2022-12-31T09:35:37.225Z,76.06
2022-12-31T09:40:39.659Z,76.05
2022-12-31T09:46:26.567Z,76.68
2022-12-31T09:51:32.279Z,77.11
2022-12-31T09:56:47.729Z,76.53
2022-12-31T10:01:59.698Z,75.88
2022-12-31T10:07:25.255Z,75.99
2022-12-31T10:12:55.361Z,75.37
2022-12-31T10:18:25.414Z,73.75
2022-12-31T10:23:30.659Z,72.48
2022-12-31T10:28:58.679Z,72.82
2022-12-31T10:34:32.604Z,71.98
2022-12-31T10:39:48.491Z,72.77
2022-12-31T10:45:15.332Z,72.59
2022-12-31T10:50:29.564Z,75.35
2022-12-31T10:56:00.756Z,74.89
2022-12-31T11:01:34.604Z,75.27
2022-12-31T11:07:01.671Z,76.53
2022-12-31T11:12:22.513Z,75.73
2022-12-31T11:17:47.911Z,75.73
2022-12-31T11:23:15.524Z,76.59
2022-12-31T11:28:39.021Z,77.11
2022-12-31T11:34:05.371Z,76.12
2022-12-31T11:39:32.098Z,75.19
2022-12-31T11:44:53.743Z,74.49
2022-12-31T11:50:01.997Z,73.89
2022-12-31T11:55:26.467Z,73.20
2022-12-31T12:00:31.148Z,72.90
2022-12-31T12:05:34.994Z,73.11
2022-12-31T12:10:47.784Z,72.68
2022-12-31T12:15:59.622Z,72.88
2022-12-31T12:21:06.612Z,72.18
2022-12-31T12:26:29.405Z,71.42
2022-12-31T12:31:34.282Z,69.39
2022-12-31T12:36:47.108Z,69.68
2022-12-31T12:42:06.508Z,69.02
2022-12-31T12:47:18.429Z,70.79
2022-12-31T12:52:59.697Z,71.07
2022-12-31T12:58:22.036Z,71.54
2022-12-31T13:03:59.996Z,70.68
2022-12-31T13:09:21.640Z,71.80
2022-12-31T13:14:36.889Z,71.71
2022-12-31T13:19:53.088Z,73.08
2022-12-31T13:25:24.510Z,72.69
2022-12-31T13:30:33.532Z,73.18
2022-12-31T13:35:55.234Z,72.61
2022-12-31T13:40:57.330Z,73.99
2022-12-31T13:46:08.351Z,74.69
2022-12-31T13:51:45.843Z,75.14
2022-12-31T13:56:50.245Z,75.23
2022-12-31T14:02:18.138Z,74.98
2022-12-31T14:07:35.363Z,73.93
2022-12-31T14:13:00.499Z,74.02
2022-12-31T14:18:03.152Z,73.61
2022-12-31T14:23:26.983Z,73.78
2022-12-31T14:29:12.369Z,73.80
2022-12-31T14:34:35.929Z,74.72
2022-12-31T14:40:09.159Z,73.95
2022-12-31T14:45:21.109Z,73.98
2022-12-31T14:50:28.739Z,76.30
2022-12-31T14:55:40.881Z,77.65
2022-12-31T15:00:55.032Z,78.13
2022-12-31T15:06:37.989Z,79.49
2022-12-31T15:12:07.241Z,79.83
2022-12-31T15:17:29.666Z,79.89
2022-12-31T15:22:46.407Z,80.72
2022-12-31T15:27:49.161Z,80.36
2022-12-31T15:32:51.879Z,79.48
2022-12-31T15:38:36.958Z,79.49
2022-12-31T15:44:03.488Z,79.79
2022-12-31T15:49:23.226Z,79.81
2022-12-31T15:54:44.740Z,79.44
2022-12-31T15:59:47.605Z,79.02
2022-12-31T16:04:50.367Z,79.23
2022-12-31T16:09:55.247Z,79.39
2022-12-31T16:14:59.300Z,78.88
2022-12-31T16:20:20.819Z,78.89
2022-12-31T16:25:33.128Z,79.14
2022-12-31T16:30:38.851Z,79.75
2022-12-31T16:35:41.176Z,80.62
2022-12-31T16:41:17.601Z,81.81
2022-12-31T16:46:27.505Z,82.29
2022-12-31T16:51:32.634Z,83.36
2022-12-31T16:56:38.618Z,84.33
2022-12-31T17:01:42.620Z,84.99
2022-12-31T17:06:45.108Z,85.63
2022-12-31T17:11:54.121Z,86.01
2022-12-31T17:17:04.189Z,86.39
2022-12-31T17:22:13.226Z,86.90
2022-12-31T17:27:15.998Z,86.51
2022-12-31T17:32:18.095Z,85.69
2022-12-31T17:37:31.157Z,85.54
2022-12-31T17:42:37.064Z,84.37
2022-12-31T17:47:41.615Z,84.52
2022-12-31T17:52:43.951Z,83.63
2022-12-31T17:57:55.720Z,84.16
2022-12-31T18:02:57.922Z,85.33
2022-12-31T18:08:00.084Z,85.57
2022-12-31T18:13:10.487Z,86.65
2022-12-31T18:18:24.787Z,87.46
2022-12-31T18:23:36.646Z,87.93
2022-12-31T18:28:38.841Z,88.40
2022-12-31T18:33:41.075Z,89.08
2022-12-31T18:38:43.468Z,89.11
2022-12-31T18:43:46.153Z,89.67
2022-12-31T18:48:48.943Z,89.62
2022-12-31T18:53:51.107Z,89.42
2022-12-31T18:58:53.783Z,88.62
2022-12-31T19:03:58.573Z,87.68
2022-12-31T19:09:01.132Z,87.13
2022-12-31T19:14:03.796Z,86.62
2022-12-31T19:19:08.689Z,86.57
2022-12-31T19:24:15.218Z,86.57
2022-12-31T19:29:23.306Z,86.48
2022-12-31T19:34:26.923Z,86.77
2022-12-31T19:39:29.112Z,87.29
2022-12-31T19:44:31.418Z,87.84
2022-12-31T19:49:34.096Z,88.21
2022-12-31T19:54:36.287Z,88.14
2022-12-31T19:59:38.492Z,88.60
2022-12-31T20:04:43.327Z,89.11
2022-12-31T20:09:45.491Z,89.63
2022-12-31T20:14:54.292Z,89.54
2022-12-31T20:19:56.546Z,89.44
2022-12-31T20:24:58.901Z,89.51
2022-12-31T20:30:01.130Z,88.74
2022-12-31T20:35:04.038Z,88.70
2022-12-31T20:40:07.266Z,88.31
2022-12-31T20:45:10.979Z,88.57
2022-12-31T20:50:13.209Z,88.55
2022-12-31T20:55:16.888Z,89.23
2022-12-31T21:00:19.724Z,89.36
2022-12-31T21:05:22.059Z,89.59
2022-12-31T21:10:24.560Z,89.78
2022-12-31T21:15:26.891Z,90.24
2022-12-31T21:20:29.144Z,90.60
2022-12-31T21:25:31.367Z,90.80
2022-12-31T21:30:33.684Z,90.82
2022-12-31T21:35:51.686Z,91.01
2022-12-31T21:40:55.642Z,91.02
2022-12-31T21:46:07.740Z,90.97
2022-12-31T21:51:16.745Z,90.93
2022-12-31T21:56:21.273Z,91.00
2022-12-31T22:01:42.232Z,91.10
2022-12-31T22:06:44.451Z,91.14
2022-12-31T22:11:46.710Z,91.23
2022-12-31T22:16:48.903Z,91.32
2022-12-31T22:21:51.117Z,91.41
2022-12-31T22:26:55.704Z,91.52
2022-12-31T22:32:01.163Z,91.62
2022-12-31T22:37:20.345Z,91.72
2022-12-31T22:42:25.863Z,91.73
2022-12-31T22:47:28.079Z,92.21
2022-12-31T22:52:31.206Z,92.18
2022-12-31T22:57:33.451Z,92.16
2022-12-31T23:02:41.365Z,92.31
2022-12-31T23:07:44.103Z,92.51
2022-12-31T23:12:46.261Z,92.44
2022-12-31T23:18:06.826Z,92.09
2022-12-31T23:23:14.741Z,92.65
2022-12-31T23:28:20.617Z,90.41
2022-12-31T23:33:25.147Z,92.60
2022-12-31T23:38:27.367Z,92.69
2022-12-31T23:43:29.596Z,92.74
2022-12-31T23:48:31.859Z,92.71
2022-12-31T23:53:34.236Z,92.63
2022-12-31T23:58:36.426Z,92.52
